Time;durP1;ratioP1;P1;durP2;ratioP2;P2;SDS_P1;SDS_P2;PMS_P1;PMS_P2;Temp;Humidity;BMP_temperature;BMP_pressure;BME280_temperature;BME280_humidity;BME280_pressure;Samples;Min_cycle;Max_cycle;Signal;HPM_P1;HPM_P2
2023/07/16 00:00:09;;;;;;;4.2;3.1;;;;;;;23.38;65.56738;935.1016;;;;
2023/07/16 00:02:38;;;;;;;3.9;3.1;;;;;;;23.49;65.2666;935.1038;;;;
2023/07/16 00:05:10;;;;;;;3.4;3.1;;;;;;;23.49;65.19531;935.2141;;;;
2023/07/16 00:07:42;;;;;;;5.1;3.3;;;;;;;23.53;64.77734;935.2352;;;;
2023/07/16 00:10:16;;;;;;;4.6;3.1;;;;;;;23.55;64.66211;935.3221;;;;
2023/07/16 00:12:45;;;;;;;4;3.2;;;;;;;23.6;64.23535;935.4186;;;;
2023/07/16 00:15:10;;;;;;;4.6;3.6;;;;;;;23.67;64.10449;935.4658;;;;
2023/07/16 00:17:39;;;;;;;5;3.4;;;;;;;23.72;64.37109;935.4781;;;;
2023/07/16 00:20:04;;;;;;;3.9;3.1;;;;;;;23.68;64.24707;935.5492;;;;
2023/07/16 00:22:29;;;;;;;6.6;3.7;;;;;;;23.62;64.66113;935.55;;;;
2023/07/16 00:24:56;;;;;;;4;3.2;;;;;;;23.67;64.93945;935.6381;;;;
2023/07/16 00:27:22;;;;;;;5.4;3.1;;;;;;;23.65;64.30176;935.6448;;;;
2023/07/16 00:29:49;;;;;;;3.7;3.1;;;;;;;23.66;63.87988;935.6067;;;;
2023/07/16 00:32:14;;;;;;;3.9;3.1;;;;;;;23.73;63.51172;935.6512;;;;
2023/07/16 00:34:41;;;;;;;5.5;3;;;;;;;23.71;63.58105;935.702;;;;
2023/07/16 00:37:06;;;;;;;3.3;3;;;;;;;23.74;63.63281;935.7318;;;;
2023/07/16 00:39:33;;;;;;;3.9;3.4;;;;;;;23.75;63.53906;935.8094;;;;
2023/07/16 00:41:58;;;;;;;5.1;3.4;;;;;;;23.75;63.71582;935.9125;;;;
2023/07/16 00:44:25;;;;;;;4.2;3;;;;;;;23.69;64.04785;936.0408;;;;
2023/07/16 00:46:50;;;;;;;5;3.3;;;;;;;23.75;63.85742;936.1646;;;;
2023/07/16 00:49:17;;;;;;;4.4;3.1;;;;;;;23.79;64.00488;936.1367;;;;
2023/07/16 00:51:42;;;;;;;6.6;3.5;;;;;;;23.76;64.2334;936.2017;;;;
2023/07/16 00:54:12;;;;;;;4.9;3.2;;;;;;;23.64;64.98242;936.2776;;;;
2023/07/16 00:56:37;;;;;;;7;3.6;;;;;;;23.65;65.03125;936.4056;;;;
2023/07/16 00:59:02;;;;;;;4.7;3.3;;;;;;;23.62;65.29688;936.486;;;;
2023/07/16 01:01:27;;;;;;;4.8;3.1;;;;;;;23.56;65.45215;936.5614;;;;
2023/07/16 01:03:55;;;;;;;4.7;3.6;;;;;;;23.56;65.54688;936.598;;;;
2023/07/16 01:06:20;;;;;;;4.1;3;;;;;;;23.52;65.84766;936.6498;;;;
2023/07/16 01:08:46;;;;;;;5.5;3.2;;;;;;;23.51;65.91699;936.7199;;;;
2023/07/16 01:11:11;;;;;;;4.5;3.5;;;;;;;23.48;66.19336;936.9247;;;;
2023/07/16 01:13:37;;;;;;;3.8;3.2;;;;;;;23.5;66.30273;936.9654;;;;
2023/07/16 01:16:04;;;;;;;3.7;3.3;;;;;;;23.47;66.14453;937.0212;;;;
2023/07/16 01:18:29;;;;;;;3.7;3.3;;;;;;;23.47;66.18066;937.1064;;;;
2023/07/16 01:20:57;;;;;;;6.1;3.6;;;;;;;23.52;65.87109;937.1587;;;;
2023/07/16 01:23:22;;;;;;;5;3.4;;;;;;;23.51;66.06836;937.1877;;;;
2023/07/16 01:25:47;;;;;;;4.4;3.5;;;;;;;23.45;66.78809;937.3008;;;;
2023/07/16 01:28:12;;;;;;;4.3;3.1;;;;;;;23.41;66.58301;937.3597;;;;
2023/07/16 01:30:39;;;;;;;4.8;3.4;;;;;;;23.38;67.20215;937.3373;;;;
2023/07/16 01:33:04;;;;;;;4.4;3.3;;;;;;;23.34;67.23047;937.4765;;;;
2023/07/16 01:35:31;;;;;;;4.5;3.2;;;;;;;23.42;66.7959;937.4032;;;;
2023/07/16 01:37:56;;;;;;;5.3;3.6;;;;;;;23.42;66.70215;937.5161;;;;
2023/07/16 01:40:22;;;;;;;5.2;3.6;;;;;;;23.45;66.6709;937.5764;;;;
2023/07/16 01:42:47;;;;;;;5.6;3.4;;;;;;;23.45;66.89551;937.5769;;;;
2023/07/16 01:45:15;;;;;;;4.6;3.6;;;;;;;23.47;66.8623;937.6459;;;;
2023/07/16 01:47:42;;;;;;;4.8;3.6;;;;;;;23.44;67.59766;937.6376;;;;
2023/07/16 01:50:07;;;;;;;6.3;4;;;;;;;23.42;67.33691;937.5634;;;;
2023/07/16 01:52:36;;;;;;;3.6;3.2;;;;;;;23.53;66.91797;937.6948;;;;
2023/07/16 01:55:01;;;;;;;6.6;3.4;;;;;;;23.56;66.94531;937.6628;;;;
2023/07/16 01:57:46;;;;;;;6;4;;;;;;;23.48;67.55762;937.705;;;;
2023/07/16 02:00:04;;;;;;;4;3.1;;;;;;;23.42;67.83008;937.6373;;;;
2023/07/16 02:02:29;;;;;;;5.1;3.2;;;;;;;23.43;67.86719;937.6372;;;;
2023/07/16 02:04:56;;;;;;;3.3;2.9;;;;;;;23.44;68.22168;937.6386;;;;
2023/07/16 02:07:21;;;;;;;3.8;3.2;;;;;;;23.48;67.99121;937.623;;;;
2023/07/16 02:09:48;;;;;;;5.2;3.8;;;;;;;23.51;67.91504;937.572;;;;
2023/07/16 02:12:13;;;;;;;5.2;3.7;;;;;;;23.46;68.38965;937.6668;;;;
2023/07/16 02:14:40;;;;;;;5.2;3.6;;;;;;;23.33;68.89648;937.7053;;;;
2023/07/16 02:17:05;;;;;;;4.5;3.3;;;;;;;23.32;68.74414;937.6919;;;;
2023/07/16 02:19:34;;;;;;;3.8;3.2;;;;;;;23.32;68.73242;937.7388;;;;
2023/07/16 02:21:59;;;;;;;6;3.5;;;;;;;23.31;68.77637;937.8119;;;;
2023/07/16 02:24:26;;;;;;;3.8;3.1;;;;;;;23.24;69.10742;937.8674;;;;
2023/07/16 02:26:51;;;;;;;5.3;3.6;;;;;;;23.24;69.33203;937.8445;;;;
2023/07/16 02:29:21;;;;;;;6.4;3.3;;;;;;;23.22;69.38672;937.8895;;;;
2023/07/16 02:31:48;;;;;;;6.1;3.1;;;;;;;23.29;69.02246;937.9044;;;;
2023/07/16 02:34:16;;;;;;;6.2;3.4;;;;;;;23.29;69.53906;937.8953;;;;
2023/07/16 02:36:41;;;;;;;4.5;3.4;;;;;;;23.2;70.05371;937.8627;;;;
2023/07/16 02:39:07;;;;;;;4.5;3.3;;;;;;;23.21;70.34961;937.8797;;;;
2023/07/16 02:41:32;;;;;;;5.1;3.9;;;;;;;23.28;69.98438;937.8834;;;;
2023/07/16 02:43:58;;;;;;;5.9;3.4;;;;;;;23.28;70.30078;937.8764;;;;
2023/07/16 02:46:24;;;;;;;5.3;3.8;;;;;;;23.34;70.2041;937.9097;;;;
2023/07/16 02:48:54;;;;;;;4.5;3.5;;;;;;;23.35;70.32324;938.048;;;;
2023/07/16 02:51:23;;;;;;;5.1;3.4;;;;;;;23.34;70.33398;938.0974;;;;
2023/07/16 02:53:48;;;;;;;6.5;3.6;;;;;;;23.38;69.9873;938.0917;;;;
2023/07/16 02:56:16;;;;;;;4.3;3.5;;;;;;;23.37;70.10449;938.1335;;;;
2023/07/16 02:58:39;;;;;;;4.6;3.7;;;;;;;23.28;70.25293;938.1414;;;;
2023/07/16 03:01:05;;;;;;;4.3;3.6;;;;;;;23.31;70.23438;938.1401;;;;
2023/07/16 03:03:33;;;;;;;3.9;3.3;;;;;;;23.22;70.72656;938.0439;;;;
2023/07/16 03:05:58;;;;;;;5.1;3.7;;;;;;;23.14;71.25391;938.1116;;;;
2023/07/16 03:08:29;;;;;;;5.5;4;;;;;;;23.05;71.58008;938.1614;;;;
2023/07/16 03:10:52;;;;;;;5;3.4;;;;;;;22.96;72.49414;938.1053;;;;
2023/07/16 03:13:21;;;;;;;4.2;3.7;;;;;;;22.84;73.27148;938.088;;;;
2023/07/16 03:15:46;;;;;;;4;3.6;;;;;;;22.71;73.76855;938.1189;;;;
2023/07/16 03:18:11;;;;;;;4.1;3.5;;;;;;;22.6;74.72363;938.1481;;;;
2023/07/16 03:20:36;;;;;;;5.1;3.8;;;;;;;22.57;75.30469;938.1696;;;;
2023/07/16 03:23:04;;;;;;;4.6;4.1;;;;;;;22.64;75.54102;938.2458;;;;
2023/07/16 03:25:29;;;;;;;4.1;3.7;;;;;;;22.66;75.50879;938.2159;;;;
2023/07/16 03:31:02;;;;;;;5;3.8;;;;;;;22.5;76.31445;938.293;;;;
2023/07/16 03:33:27;;;;;;;4.6;3.6;;;;;;;22.37;76.92578;938.3127;;;;
2023/07/16 03:35:56;;;;;;;4.6;3.5;;;;;;;22.46;76.40039;938.2969;;;;
2023/07/16 03:38:22;;;;;;;5.8;4.1;;;;;;;22.42;77.38086;938.3092;;;;
2023/07/16 03:40:47;;;;;;;5;3.9;;;;;;;22.42;77.12207;938.3281;;;;
2023/07/16 03:43:12;;;;;;;4.6;3.7;;;;;;;22.41;77.68457;938.3404;;;;
2023/07/16 03:45:37;;;;;;;6.4;3.9;;;;;;;22.31;78.16016;938.4048;;;;
2023/07/16 03:48:03;;;;;;;4.6;4;;;;;;;22.35;78.27051;938.368;;;;
2023/07/16 03:50:29;;;;;;;4.2;3.7;;;;;;;22.41;77.91797;938.3779;;;;
2023/07/16 03:52:57;;;;;;;4.9;3.9;;;;;;;22.54;77.21387;938.3912;;;;
2023/07/16 03:55:23;;;;;;;5.7;4.2;;;;;;;22.63;76.78223;938.3617;;;;
2023/07/16 03:57:50;;;;;;;4.1;3.7;;;;;;;22.65;76.49219;938.4308;;;;
2023/07/16 04:02:33;;;;;;;5.4;4;;;;;;;22.8;74.87598;938.4827;;;;
2023/07/16 04:05:02;;;;;;;5.2;3.9;;;;;;;22.83;74.90234;938.4758;;;;
2023/07/16 04:07:27;;;;;;;5.3;3.9;;;;;;;22.87;74.67383;938.5002;;;;
2023/07/16 04:09:54;;;;;;;4.7;3.6;;;;;;;22.75;74.92578;938.5292;;;;
2023/07/16 04:12:19;;;;;;;5.4;3.7;;;;;;;22.56;76.06738;938.4992;;;;
2023/07/16 04:14:46;;;;;;;6.4;3.5;;;;;;;22.56;76.30176;938.5252;;;;
2023/07/16 04:17:11;;;;;;;4.8;3.7;;;;;;;22.4;77.58789;938.6451;;;;
2023/07/16 04:19:39;;;;;;;5;3.9;;;;;;;22.34;78.29395;938.6886;;;;
2023/07/16 04:22:04;;;;;;;6.4;3.9;;;;;;;22.3;78.53223;938.6805;;;;
2023/07/16 04:24:32;;;;;;;4.5;3.9;;;;;;;22.36;78.56543;938.7513;;;;
2023/07/16 04:26:57;;;;;;;4.2;3.8;;;;;;;22.22;79.05859;938.7299;;;;
2023/07/16 04:29:22;;;;;;;4.6;3.7;;;;;;;22.13;79.60352;938.7745;;;;
2023/07/16 04:31:49;;;;;;;6.7;4.7;;;;;;;22.11;79.72754;938.8093;;;;
2023/07/16 04:34:14;;;;;;;7.7;4.4;;;;;;;22.14;79.21875;938.8398;;;;
2023/07/16 04:36:43;;;;;;;4.8;3.8;;;;;;;22.16;78.71875;938.834;;;;
2023/07/16 04:39:10;;;;;;;4.8;4;;;;;;;22.26;78.30176;938.8141;;;;
2023/07/16 04:41:36;;;;;;;5.8;3.9;;;;;;;22.2;78.9834;938.8444;;;;
2023/07/16 04:44:05;;;;;;;6.3;3.9;;;;;;;22.04;80.13867;938.8251;;;;
2023/07/16 04:46:36;;;;;;;5.7;3.8;;;;;;;21.98;80.96094;938.6895;;;;
2023/07/16 04:49:04;;;;;;;6.4;4;;;;;;;21.96;81.58887;938.8016;;;;
2023/07/16 04:51:29;;;;;;;5.8;3.6;;;;;;;21.95;81.55176;938.8036;;;;
2023/07/16 04:54:01;;;;;;;6.1;3.5;;;;;;;22.03;81.16797;938.848;;;;
2023/07/16 04:56:29;;;;;;;5.2;3.8;;;;;;;22.06;81.19824;938.8157;;;;
2023/07/16 04:58:54;;;;;;;7.2;3.6;;;;;;;22.07;81.5752;938.8095;;;;
2023/07/16 05:01:25;;;;;;;6.8;3.5;;;;;;;22.08;81.96387;938.8628;;;;
2023/07/16 05:03:48;;;;;;;3.8;3.3;;;;;;;21.93;83.08594;938.894;;;;
2023/07/16 05:06:15;;;;;;;6.4;3.3;;;;;;;21.87;83.75195;938.8005;;;;
2023/07/16 05:08:40;;;;;;;4.2;3.3;;;;;;;21.65;85.40723;938.8131;;;;
2023/07/16 05:11:09;;;;;;;3.7;2.9;;;;;;;21.53;86.5332;938.7495;;;;
2023/07/16 05:13:40;;;;;;;3.7;3;;;;;;;21.41;87.26953;938.8461;;;;
2023/07/16 05:16:08;;;;;;;4.1;2.7;;;;;;;21.51;86.71777;938.9533;;;;
2023/07/16 05:18:33;;;;;;;3.3;3;;;;;;;21.53;87.02734;938.9866;;;;
2023/07/16 05:20:58;;;;;;;4;2.9;;;;;;;21.48;87.51953;939.0442;;;;
2023/07/16 05:23:27;;;;;;;3.3;2.4;;;;;;;21.38;88.14355;939.1928;;;;
2023/07/16 05:25:52;;;;;;;2.9;2.4;;;;;;;21.38;88.29395;939.2311;;;;
2023/07/16 05:28:17;;;;;;;2.9;2.1;;;;;;;21.37;88.02539;939.2919;;;;
2023/07/16 05:30:43;;;;;;;2.6;1.8;;;;;;;21.44;87.25195;939.3033;;;;
2023/07/16 05:33:08;;;;;;;2.2;1.6;;;;;;;21.36;87.19043;939.2966;;;;
2023/07/16 05:35:36;;;;;;;1.6;1.5;;;;;;;21.33;87.26758;939.3127;;;;
2023/07/16 05:38:02;;;;;;;1.5;1.4;;;;;;;21.31;87.19141;939.3035;;;;
2023/07/16 05:40:31;;;;;;;1.8;1.4;;;;;;;21.28;86.83496;939.3353;;;;
2023/07/16 05:43:01;;;;;;;2;1.1;;;;;;;21.25;85.88379;939.3013;;;;
2023/07/16 05:45:32;;;;;;;1.3;1.2;;;;;;;21.22;85.54883;939.3818;;;;
2023/07/16 05:48:00;;;;;;;1.3;1.2;;;;;;;;;;;;;
2023/07/16 05:50:25;;;;;;;1.2;1.1;;;;;;;;;;;;;
2023/07/16 05:52:52;;;;;;;1.5;1;;;;;;;;;;;;;
2023/07/16 05:55:17;;;;;;;1.7;1;;;;;;;;;;;;;
2023/07/16 05:57:42;;;;;;;1.2;1;;;;;;;;;;;;;
2023/07/16 06:00:08;;;;;;;1.2;1.1;;;;;;;;;;;;;
2023/07/16 06:02:33;;;;;;;1.5;1.1;;;;;;;;;;;;;
2023/07/16 06:04:58;;;;;;;1.7;1.1;;;;;;;;;;;;;
2023/07/16 06:08:04;;;;;;;2.7;1;;;;;;;;;;;;;
2023/07/16 06:10:11;;;;;;;1;0.8;;;;;;;;;;;;;
2023/07/16 06:12:36;;;;;;;1.1;0.9;;;;;;;;;;;;;
2023/07/16 06:15:01;;;;;;;1.3;0.9;;;;;;;;;;;;;
2023/07/16 06:17:26;;;;;;;0.9;0.9;;;;;;;;;;;;;
2023/07/16 06:19:54;;;;;;;1;0.9;;;;;;;;;;;;;
2023/07/16 06:22:19;;;;;;;0.9;0.9;;;;;;;;;;;;;
2023/07/16 06:24:45;;;;;;;0.9;0.9;;;;;;;;;;;;;
2023/07/16 06:27:10;;;;;;;2;0.9;;;;;;;;;;;;;
2023/07/16 06:29:36;;;;;;;2.8;1;;;;;;;;;;;;;
2023/07/16 06:32:02;;;;;;;0.7;0.7;;;;;;;;;;;;;
2023/07/16 06:34:28;;;;;;;1;0.9;;;;;;;;;;;;;
2023/07/16 06:36:53;;;;;;;0.9;0.8;;;;;;;;;;;;;
2023/07/16 06:39:18;;;;;;;1.1;0.9;;;;;;;;;;;;;
2023/07/16 06:41:43;;;;;;;0.9;0.8;;;;;;;;;;;;;
2023/07/16 06:44:10;;;;;;;1.1;1;;;;;;;;;;;;;
2023/07/16 06:46:36;;;;;;;1;1;;;;;;;;;;;;;
2023/07/16 06:49:02;;;;;;;1;0.9;;;;;;;;;;;;;
2023/07/16 06:51:28;;;;;;;0.9;0.9;;;;;;;;;;;;;
2023/07/16 06:53:53;;;;;;;1;0.8;;;;;;;;;;;;;
2023/07/16 06:56:18;;;;;;;1;0.8;;;;;;;;;;;;;
2023/07/16 06:58:45;;;;;;;1;0.9;;;;;;;;;;;;;
2023/07/16 07:01:10;;;;;;;1.1;1;;;;;;;;;;;;;
2023/07/16 07:03:35;;;;;;;0.8;0.8;;;;;;;;;;;;;
2023/07/16 07:06:01;;;;;;;1;0.9;;;;;;;;;;;;;
2023/07/16 07:08:28;;;;;;;1.1;0.8;;;;;;;;;;;;;
2023/07/16 07:10:53;;;;;;;0.7;0.7;;;;;;;;;;;;;
2023/07/16 07:13:19;;;;;;;0.8;0.8;;;;;;;;;;;;;
2023/07/16 07:15:44;;;;;;;1.9;0.8;;;;;;;;;;;;;
2023/07/16 07:18:10;;;;;;;2.5;0.9;;;;;;;;;;;;;
2023/07/16 07:20:35;;;;;;;0.7;0.7;;;;;;;;;;;;;
2023/07/16 07:23:03;;;;;;;0.8;0.8;;;;;;;;;;;;;
2023/07/16 07:25:27;;;;;;;1.1;0.9;;;;;;;;;;;;;
2023/07/16 07:27:56;;;;;;;0.7;0.7;;;;;;;;;;;;;
2023/07/16 07:30:21;;;;;;;1.4;0.8;;;;;;;;;;;;;
2023/07/16 07:32:47;;;;;;;0.7;0.7;;;;;;;;;;;;;
2023/07/16 07:35:12;;;;;;;0.7;0.7;;;;;;;;;;;;;
2023/07/16 07:37:38;;;;;;;0.7;0.7;;;;;;;;;;;;;
2023/07/16 07:40:04;;;;;;;0.7;0.7;;;;;;;;;;;;;
2023/07/16 07:42:29;;;;;;;1.3;0.8;;;;;;;;;;;;;
2023/07/16 07:44:55;;;;;;;2;0.8;;;;;;;;;;;;;
2023/07/16 07:47:20;;;;;;;1.1;1.1;;;;;;;;;;;;;
2023/07/16 07:49:45;;;;;;;2;0.9;;;;;;;;;;;;;
2023/07/16 07:52:11;;;;;;;1.6;0.9;;;;;;;;;;;;;
2023/07/16 07:54:36;;;;;;;0.9;0.9;;;;;;;;;;;;;
2023/07/16 07:57:03;;;;;;;0.8;0.8;;;;;;;;;;;;;
2023/07/16 07:59:27;;;;;;;1.1;0.8;;;;;;;;;;;;;
2023/07/16 08:01:53;;;;;;;1.4;1;;;;;;;;;;;;;
2023/07/16 08:04:18;;;;;;;0.8;0.8;;;;;;;;;;;;;
2023/07/16 08:06:45;;;;;;;1.3;0.9;;;;;;;;;;;;;
2023/07/16 08:09:11;;;;;;;1.1;1;;;;;;;;;;;;;
2023/07/16 08:11:36;;;;;;;1.3;0.9;;;;;;;;;;;;;
2023/07/16 08:14:01;;;;;;;1;0.8;;;;;;;;;;;;;
2023/07/16 08:16:28;;;;;;;1;0.9;;;;;;;;;;;;;
2023/07/16 08:18:53;;;;;;;1;1;;;;;;;;;;;;;
2023/07/16 08:21:19;;;;;;;1.2;1;;;;;;;;;;;;;
2023/07/16 08:23:44;;;;;;;1.1;0.9;;;;;;;;;;;;;
2023/07/16 08:26:12;;;;;;;0.9;0.9;;;;;;;;;;;;;
2023/07/16 08:28:35;;;;;;;1;0.9;;;;;;;;;;;;;
2023/07/16 08:31:02;;;;;;;1;0.9;;;;;;;;;;;;;
2023/07/16 08:33:27;;;;;;;1.5;0.9;;;;;;;;;;;;;
2023/07/16 08:35:52;;;;;;;1.4;1;;;;;;;;;;;;;
2023/07/16 08:38:17;;;;;;;0.8;0.8;;;;;;;;;;;;;
2023/07/16 08:40:43;;;;;;;1.3;1;;;;;;;;;;;;;
2023/07/16 08:43:08;;;;;;;1.1;1;;;;;;;;;;;;;
2023/07/16 08:45:34;;;;;;;1;0.9;;;;;;;;;;;;;
2023/07/16 08:47:59;;;;;;;1.4;1.1;;;;;;;;;;;;;
2023/07/16 08:50:28;;;;;;;1.2;1.1;;;;;;;;;;;;;
2023/07/16 08:52:53;;;;;;;1.2;1.1;;;;;;;;;;;;;
2023/07/16 08:55:20;;;;;;;1.9;1.1;;;;;;;;;;;;;
2023/07/16 08:57:45;;;;;;;1.7;1;;;;;;;;;;;;;
2023/07/16 09:00:13;;;;;;;0.9;0.9;;;;;;;;;;;;;
2023/07/16 09:02:38;;;;;;;1.3;1.2;;;;;;;;;;;;;
2023/07/16 09:05:03;;;;;;;1.6;1.5;;;;;;;;;;;;;
2023/07/16 09:07:28;;;;;;;1.3;1.1;;;;;;;;;;;;;
2023/07/16 09:09:57;;;;;;;1.6;0.9;;;;;;;;;;;;;
2023/07/16 09:12:20;;;;;;;0.9;0.9;;;;;;;;;;;;;
2023/07/16 09:14:50;;;;;;;1.5;1;;;;;;;;;;;;;
2023/07/16 09:17:16;;;;;;;8.2;1.8;;;;;;;;;;;;;
2023/07/16 09:19:42;;;;;;;1.2;1.1;;;;;;;;;;;;;
2023/07/16 09:22:11;;;;;;;6.2;1.2;;;;;;;;;;;;;
2023/07/16 09:24:36;;;;;;;1.1;1;;;;;;;;;;;;;
2023/07/16 09:27:02;;;;;;;1.6;1.4;;;;;;;;;;;;;
2023/07/16 09:29:28;;;;;;;2;1.1;;;;;;;;;;;;;
2023/07/16 09:31:54;;;;;;;1;0.9;;;;;;;;;;;;;
2023/07/16 09:34:19;;;;;;;2.2;0.9;;;;;;;;;;;;;
2023/07/16 09:36:46;;;;;;;1.3;1;;;;;;;;;;;;;
2023/07/16 09:39:16;;;;;;;3.6;1.3;;;;;;;;;;;;;
2023/07/16 09:41:41;;;;;;;0.8;0.8;;;;;;;;;;;;;
2023/07/16 09:44:09;;;;;;;1.2;0.9;;;;;;;;;;;;;
2023/07/16 09:46:34;;;;;;;1;0.9;;;;;;;;;;;;;
2023/07/16 09:48:59;;;;;;;1.1;1;;;;;;;;;;;;;
2023/07/16 09:51:24;;;;;;;1.2;1.1;;;;;;;;;;;;;
2023/07/16 09:53:51;;;;;;;1.9;1.1;;;;;;;;;;;;;
2023/07/16 09:56:16;;;;;;;1.7;1;;;;;;;;;;;;;
2023/07/16 09:58:42;;;;;;;1.5;0.9;;;;;;;;;;;;;
2023/07/16 10:01:08;;;;;;;0.9;0.8;;;;;;;;;;;;;
2023/07/16 10:03:33;;;;;;;1.2;0.9;;;;;;;;;;;;;
2023/07/16 10:05:58;;;;;;;2.5;1.5;;;;;;;;;;;;;
2023/07/16 10:08:24;;;;;;;1.3;1;;;;;;;;;;;;;
2023/07/16 10:10:51;;;;;;;1.1;1;;;;;;;;;;;;;
2023/07/16 10:13:15;;;;;;;1.4;1.2;;;;;;;;;;;;;
2023/07/16 10:15:42;;;;;;;1.7;1.1;;;;;;;;;;;;;
2023/07/16 10:18:06;;;;;;;1.3;1.2;;;;;;;;;;;;;
2023/07/16 10:20:32;;;;;;;1.3;1.1;;;;;;;;;;;;;
2023/07/16 10:22:58;;;;;;;1.2;1.1;;;;;;;;;;;;;
2023/07/16 10:25:23;;;;;;;1.2;0.9;;;;;;;;;;;;;
2023/07/16 10:27:50;;;;;;;1.3;1.2;;;;;;;;;;;;;
2023/07/16 10:30:15;;;;;;;1.3;1.1;;;;;;;;;;;;;
2023/07/16 10:32:43;;;;;;;1;0.8;;;;;;;;;;;;;
2023/07/16 10:35:08;;;;;;;1.2;1.1;;;;;;;;;;;;;
2023/07/16 10:37:36;;;;;;;1;1;;;;;;;;;;;;;
2023/07/16 10:40:03;;;;;;;1;0.9;;;;;;;;;;;;;
2023/07/16 10:42:31;;;;;;;1.4;1.2;;;;;;;;;;;;;
2023/07/16 10:44:56;;;;;;;1.3;1.2;;;;;;;;;;;;;
2023/07/16 10:47:23;;;;;;;0.9;0.9;;;;;;;;;;;;;
2023/07/16 10:49:47;;;;;;;1.2;1.1;;;;;;;;;;;;;
2023/07/16 10:52:13;;;;;;;1.1;1;;;;;;;;;;;;;
2023/07/16 10:54:38;;;;;;;1.9;1.2;;;;;;;;;;;;;
2023/07/16 10:57:03;;;;;;;2;1.1;;;;;;;;;;;;;
2023/07/16 10:59:28;;;;;;;1.7;1;;;;;;;;;;;;;
2023/07/16 11:01:57;;;;;;;1.2;1.1;;;;;;;;;;;;;
2023/07/16 11:04:22;;;;;;;1.5;1.2;;;;;;;;;;;;;
2023/07/16 11:06:48;;;;;;;1.6;1.1;;;;;;;;;;;;;
2023/07/16 11:09:14;;;;;;;1.1;1;;;;;;;;;;;;;
2023/07/16 11:11:42;;;;;;;1.2;1.1;;;;;;;;;;;;;
2023/07/16 11:14:06;;;;;;;1.3;1.1;;;;;;;;;;;;;
2023/07/16 11:16:34;;;;;;;1.4;1.3;;;;;;;;;;;;;
2023/07/16 11:18:59;;;;;;;1.8;1.3;;;;;;;;;;;;;
2023/07/16 11:21:24;;;;;;;3.2;1.2;;;;;;;;;;;;;
2023/07/16 11:23:49;;;;;;;1.3;1.2;;;;;;;;;;;;;
2023/07/16 11:26:14;;;;;;;2.1;1.1;;;;;;;;;;;;;
2023/07/16 11:28:39;;;;;;;2.5;1.3;;;;;;;;;;;;;
2023/07/16 11:31:06;;;;;;;1.2;1.1;;;;;;;;;;;;;
2023/07/16 11:33:31;;;;;;;1.3;1.2;;;;;;;;;;;;;
2023/07/16 11:35:57;;;;;;;2;1.3;;;;;;;;;;;;;
2023/07/16 11:38:22;;;;;;;1.6;1.3;;;;;;;;;;;;;
2023/07/16 11:40:47;;;;;;;1.4;1.3;;;;;;;;;;;;;
2023/07/16 11:43:13;;;;;;;1.6;1.3;;;;;;;;;;;;;
2023/07/16 11:45:41;;;;;;;1.9;1.5;;;;;;;;;;;;;
2023/07/16 11:48:06;;;;;;;1.5;1.4;;;;;;;;;;;;;
2023/07/16 11:50:31;;;;;;;2;1.4;;;;;;;;;;;;;
2023/07/16 11:52:56;;;;;;;1.4;1.3;;;;;;;;;;;;;
2023/07/16 11:55:22;;;;;;;2.2;1.3;;;;;;;;;;;;;
2023/07/16 11:57:47;;;;;;;1.7;1.4;;;;;;;;;;;;;
2023/07/16 12:00:17;;;;;;;1.4;1.3;;;;;;;;;;;;;
2023/07/16 12:02:40;;;;;;;2.3;1.4;;;;;;;;;;;;;
2023/07/16 12:05:06;;;;;;;1.6;1.3;;;;;;;;;;;;;
2023/07/16 12:07:31;;;;;;;1.5;1.4;;;;;;;;;;;;;
2023/07/16 12:09:57;;;;;;;2.2;1.4;;;;;;;;;;;;;
2023/07/16 12:12:21;;;;;;;1.4;1.3;;;;;;;;;;;;;
2023/07/16 12:14:47;;;;;;;1.4;1.3;;;;;;;;;;;;;
2023/07/16 12:17:12;;;;;;;1.4;1.3;;;;;;;;;;;;;
2023/07/16 12:19:39;;;;;;;1.9;1.7;;;;;;;;;;;;;
2023/07/16 12:22:04;;;;;;;1.7;1.6;;;;;;;;;;;;;
2023/07/16 12:24:30;;;;;;;1.4;1.3;;;;;;;;;;;;;
2023/07/16 12:26:56;;;;;;;2;1.6;;;;;;;;;;;;;
2023/07/16 12:29:22;;;;;;;3;1.9;;;;;;;;;;;;;
2023/07/16 12:31:47;;;;;;;2.4;1.6;;;;;;;;;;;;;
2023/07/16 12:34:12;;;;;;;2.2;1.4;;;;;;;;;;;;;
2023/07/16 12:36:38;;;;;;;1.7;1.6;;;;;;;;;;;;;
2023/07/16 12:39:04;;;;;;;2.2;1.6;;;;;;;;;;;;;
2023/07/16 12:41:30;;;;;;;2.3;1.5;;;;;;;;;;;;;
2023/07/16 12:43:55;;;;;;;3.8;1.7;;;;;;;;;;;;;
2023/07/16 12:46:21;;;;;;;2.1;1.7;;;;;;;;;;;;;
2023/07/16 12:48:46;;;;;;;1.8;1.5;;;;;;;;;;;;;
2023/07/16 12:51:13;;;;;;;1.5;1.3;;;;;;;;;;;;;
2023/07/16 12:53:39;;;;;;;1.7;1.4;;;;;;;;;;;;;
2023/07/16 12:56:06;;;;;;;1.8;1.6;;;;;;;;;;;;;
2023/07/16 12:58:31;;;;;;;1.4;1.3;;;;;;;;;;;;;
2023/07/16 13:00:56;;;;;;;2.2;1.6;;;;;;;;;;;;;
2023/07/16 13:03:21;;;;;;;2.7;1.8;;;;;;;;;;;;;
2023/07/16 13:05:47;;;;;;;3.2;1.5;;;;;;;;;;;;;
2023/07/16 13:08:12;;;;;;;2.8;1.5;;;;;;;;;;;;;
2023/07/16 13:10:39;;;;;;;1.9;1.7;;;;;;;;;;;;;
2023/07/16 13:13:05;;;;;;;2;1.5;;;;;;;;;;;;;
2023/07/16 13:15:32;;;;;;;2.8;1.5;;;;;;;;;;;;;
2023/07/16 13:17:57;;;;;;;1.9;1.5;;;;;;;;;;;;;
2023/07/16 13:20:25;;;;;;;2.2;1.5;;;;;;;;;;;;;
2023/07/16 13:22:50;;;;;;;1.9;1.7;;;;;;;;;;;;;
2023/07/16 13:25:16;;;;;;;4.3;1.5;;;;;;;;;;;;;
2023/07/16 13:27:42;;;;;;;1.6;1.5;;;;;;;;;;;;;
2023/07/16 13:30:09;;;;;;;1.9;1.5;;;;;;;;;;;;;
2023/07/16 13:32:35;;;;;;;3;1.5;;;;;;;;;;;;;
2023/07/16 13:35:00;;;;;;;2.2;1.7;;;;;;;;;;;;;
2023/07/16 13:37:25;;;;;;;1.8;1.4;;;;;;;;;;;;;
2023/07/16 13:39:52;;;;;;;1.7;1.6;;;;;;;;;;;;;
2023/07/16 13:42:17;;;;;;;1.8;1.6;;;;;;;;;;;;;
2023/07/16 13:44:42;;;;;;;2.5;1.4;;;;;;;;;;;;;
2023/07/16 13:47:08;;;;;;;1.9;1.6;;;;;;;;;;;;;
2023/07/16 13:49:34;;;;;;;2.7;1.8;;;;;;;;;;;;;
2023/07/16 13:51:59;;;;;;;1.6;1.4;;;;;;;;;;;;;
2023/07/16 13:54:26;;;;;;;2;1.6;;;;;;;;;;;;;
2023/07/16 13:56:51;;;;;;;1.6;1.5;;;;;;;;;;;;;
2023/07/16 13:59:18;;;;;;;1.5;1.4;;;;;;;;;;;;;
2023/07/16 14:01:43;;;;;;;1.7;1.4;;;;;;;;;;;;;
2023/07/16 14:04:09;;;;;;;1.8;1.4;;;;;;;;;;;;;
2023/07/16 14:06:34;;;;;;;2.6;2;;;;;;;;;;;;;
2023/07/16 14:09:01;;;;;;;1.7;1.6;;;;;;;;;;;;;
2023/07/16 14:11:30;;;;;;;2.2;1.5;;;;;;;;;;;;;
2023/07/16 14:13:55;;;;;;;1.9;1.8;;;;;;;;;;;;;
2023/07/16 14:16:21;;;;;;;2.2;1.4;;;;;;;;;;;;;
2023/07/16 14:18:46;;;;;;;1.9;1.6;;;;;;;;;;;;;
2023/07/16 14:21:14;;;;;;;1.8;1.6;;;;;;;;;;;;;
2023/07/16 14:23:39;;;;;;;1.7;1.5;;;;;;;;;;;;;
2023/07/16 14:26:05;;;;;;;2.2;1.7;;;;;;;;;;;;;
2023/07/16 14:28:30;;;;;;;3;2.5;;;;;;;;;;;;;
2023/07/16 14:30:57;;;;;;;1.9;1.7;;;;;;;;;;;;;
2023/07/16 14:33:22;;;;;;;1.9;1.6;;;;;;;;;;;;;
2023/07/16 14:35:48;;;;;;;2.2;1.8;;;;;;;;;;;;;
2023/07/16 14:38:13;;;;;;;2.3;1.7;;;;;;;;;;;;;
2023/07/16 14:40:41;;;;;;;7.9;2;;;;;;;;;;;;;
2023/07/16 14:43:05;;;;;;;1.9;1.7;;;;;;;;;;;;;
2023/07/16 14:45:31;;;;;;;2.3;1.8;;;;;;;;;;;;;
2023/07/16 14:47:56;;;;;;;1.5;1.4;;;;;;;;;;;;;
2023/07/16 14:50:23;;;;;;;2.3;1.6;;;;;;;;;;;;;
2023/07/16 14:52:48;;;;;;;1.6;1.5;;;;;;;;;;;;;
2023/07/16 14:55:15;;;;;;;1.7;1.6;;;;;;;;;;;;;
2023/07/16 14:57:41;;;;;;;1.8;1.7;;;;;;;;;;;;;
2023/07/16 15:00:11;;;;;;;1.8;1.7;;;;;;;;;;;;;
2023/07/16 15:02:38;;;;;;;2.1;1.9;;;;;;;;;;;;;
2023/07/16 15:05:04;;;;;;;1.5;1.4;;;;;;;;;;;;;
2023/07/16 15:07:32;;;;;;;1.9;1.7;;;;;;;;;;;;;
2023/07/16 15:09:57;;;;;;;2.3;1.7;;;;;;;;;;;;;
2023/07/16 15:12:27;;;;;;;2;1.8;;;;;;;;;;;;;
2023/07/16 15:14:55;;;;;;;2.6;1.6;;;;;;;;;;;;;
2023/07/16 15:17:21;;;;;;;2.2;1.7;;;;;;;;;;;;;
2023/07/16 15:19:49;;;;;;;1.8;1.5;;;;;;;;;;;;;
2023/07/16 15:22:16;;;;;;;2.2;1.5;;;;;;;;;;;;;
2023/07/16 15:24:40;;;;;;;2.5;1.8;;;;;;;;;;;;;
2023/07/16 15:27:07;;;;;;;1.9;1.8;;;;;;;;;;;;;
2023/07/16 15:29:32;;;;;;;1.7;1.6;;;;;;;;;;;;;
2023/07/16 15:31:58;;;;;;;2.2;1.6;;;;;;;;;;;;;
2023/07/16 15:34:23;;;;;;;1.9;1.7;;;;;;;;;;;;;
2023/07/16 15:36:49;;;;;;;2.4;1.7;;;;;;;;;;;;;
2023/07/16 15:39:14;;;;;;;2.3;1.7;;;;;;;;;;;;;
2023/07/16 15:41:41;;;;;;;2;1.6;;;;;;;;;;;;;
2023/07/16 15:44:07;;;;;;;1.7;1.6;;;;;;;;;;;;;
2023/07/16 15:46:34;;;;;;;2.2;1.7;;;;;;;;;;;;;
2023/07/16 15:48:59;;;;;;;2;1.8;;;;;;;;;;;;;
2023/07/16 15:51:24;;;;;;;2.1;1.6;;;;;;;;;;;;;
2023/07/16 15:53:49;;;;;;;2.6;1.9;;;;;;;;;;;;;
2023/07/16 15:56:15;;;;;;;1.6;1.5;;;;;;;;;;;;;
2023/07/16 15:58:41;;;;;;;1.5;1.4;;;;;;;;;;;;;
2023/07/16 16:01:06;;;;;;;2.1;1.7;;;;;;;;;;;;;
2023/07/16 16:03:32;;;;;;;1.6;1.5;;;;;;;;;;;;;
2023/07/16 16:05:57;;;;;;;2.6;1.8;;;;;;;;;;;;;
2023/07/16 16:08:23;;;;;;;1.8;1.7;;;;;;;;;;;;;
2023/07/16 16:10:49;;;;;;;2.7;1.8;;;;;;;;;;;;;
2023/07/16 16:13:16;;;;;;;1.8;1.7;;;;;;;;;;;;;
2023/07/16 16:15:42;;;;;;;1.7;1.6;;;;;;;;;;;;;
2023/07/16 16:18:09;;;;;;;2.6;1.6;;;;;;;;;;;;;
2023/07/16 16:20:34;;;;;;;3.1;1.7;;;;;;;;;;;;;
2023/07/16 16:22:59;;;;;;;1.9;1.8;;;;;;;;;;;;;
2023/07/16 16:25:24;;;;;;;2.1;1.6;;;;;;;;;;;;;
2023/07/16 16:27:49;;;;;;;2.1;1.7;;;;;;;;;;;;;
2023/07/16 16:30:19;;;;;;;2.1;1.7;;;;;;;;;;;;;
2023/07/16 16:32:48;;;;;;;2.3;1.6;;;;;;;;;;;;;
2023/07/16 16:35:12;;;;;;;1.7;1.5;;;;;;;;;;;;;
2023/07/16 16:37:40;;;;;;;1.7;1.6;;;;;;;;;;;;;
2023/07/16 16:40:06;;;;;;;2.1;1.9;;;;;;;;;;;;;
2023/07/16 16:42:35;;;;;;;2.3;1.8;;;;;;;;;;;;;
2023/07/16 16:45:05;;;;;;;3;2;;;;;;;;;;;;;
2023/07/16 16:47:27;;;;;;;2.1;1.8;;;;;;;;;;;;;
2023/07/16 16:49:52;;;;;;;2.6;1.7;;;;;;;;;;;;;
2023/07/16 16:52:17;;;;;;;1.7;1.6;;;;;;;;;;;;;
2023/07/16 16:54:42;;;;;;;2;1.8;;;;;;;;;;;;;
2023/07/16 16:57:08;;;;;;;1.7;1.6;;;;;;;;;;;;;
2023/07/16 16:59:35;;;;;;;2.4;1.7;;;;;;;;;;;;;
2023/07/16 17:02:00;;;;;;;2.3;1.6;;;;;;;;;;;;;
2023/07/16 17:04:25;;;;;;;1.8;1.6;;;;;;;;;;;;;
2023/07/16 17:06:53;;;;;;;2;1.7;;;;;;;;;;;;;
2023/07/16 17:09:16;;;;;;;2.3;2;;;;;;;;;;;;;
2023/07/16 17:11:42;;;;;;;1.8;1.7;;;;;;;;;;;;;
2023/07/16 17:14:07;;;;;;;2;1.7;;;;;;;;;;;;;
2023/07/16 17:16:33;;;;;;;2;1.8;;;;;;;;;;;;;
2023/07/16 17:18:58;;;;;;;2.3;1.9;;;;;;;;;;;;;
2023/07/16 17:21:27;;;;;;;1.6;1.5;;;;;;;;;;;;;
2023/07/16 17:23:52;;;;;;;1.7;1.6;;;;;;;;;;;;;
2023/07/16 17:26:19;;;;;;;3.1;2;;;;;;;;;;;;;
2023/07/16 17:28:45;;;;;;;1.9;1.8;;;;;;;;;;;;;
2023/07/16 17:31:10;;;;;;;4.4;1.9;;;;;;;;;;;;;
2023/07/16 17:33:35;;;;;;;3;1.7;;;;;;;;;;;;;
2023/07/16 17:36:02;;;;;;;2.1;1.8;;;;;;;;;;;;;
2023/07/16 17:38:27;;;;;;;2.2;2;;;;;;;;;;;;;
2023/07/16 17:40:53;;;;;;;1.8;1.7;;;;;;;;;;;;;
2023/07/16 17:43:18;;;;;;;2.2;1.9;;;;;;;;;;;;;
2023/07/16 17:45:44;;;;;;;2;1.8;;;;;;;;;;;;;
2023/07/16 17:48:09;;;;;;;2.3;1.8;;;;;;;;;;;;;
2023/07/16 17:50:34;;;;;;;2.1;1.9;;;;;;;;;;;;;
2023/07/16 17:53:01;;;;;;;2.3;1.7;;;;;;;;;;;;;
2023/07/16 17:55:27;;;;;;;2.3;2.1;;;;;;;;;;;;;
2023/07/16 17:57:53;;;;;;;3.5;1.8;;;;;;;;;;;;;
2023/07/16 18:00:18;;;;;;;2.1;1.9;;;;;;;;;;;;;
2023/07/16 18:02:49;;;;;;;2.3;2.1;;;;;;;;;;;;;
2023/07/16 18:05:18;;;;;;;2.1;1.9;;;;;;;;;;;;;
2023/07/16 18:07:43;;;;;;;2;1.8;;;;;;;;;;;;;
2023/07/16 18:10:13;;;;;;;2.5;1.9;;;;;;;;;;;;;
2023/07/16 18:12:40;;;;;;;2.2;1.7;;;;;;;;;;;;;
2023/07/16 18:15:05;;;;;;;1.8;1.7;;;;;;;;;;;;;